KMHT

Manchester Airport

Manchester, New Hampshire, USA
METAR KMHT 181553Z 33016G24KT 10SM SCT060 06/M11 A3020 RMK AO2 PK WND 33029/1505 SLP241 T00611106
Observed Flight Rules
Oct-18 @ 15:53 UTC (23 minutes ago) Visual Flight Rules
Wind Visibility Clouds
330° at 16 knots
 Gusting to 24 knots
10 miles
  • Scattered at 6,000' AGL
Temperatures Readings
Current 6°C / 43°F
Dewpoint -11°C / 12°F
Humidity 29%
Altimeter 30.2" Hg
Pressure 1024.1 hPa
Elevation 81
METAR KMHT 181553Z 33016G24KT 10SM SCT060 06/M11 A3020 RMK AO2 PK WND 33029/1505 SLP241 T00611106
Observed Flight Rules
Oct-18 @ 15:53 UTC
(23 minutes ago)
VFR
Wind Visibility
330° at 16 knots
 Gusting to 24 knots
10 miles
Clouds
  • Scattered at 6,000' AGL
Temperature Dewpoint
6°C / 43°F -11°C / 12°F
Humidity Altimeter Pressure
29% 30.2" Hg 1024.1 hPa